sensor_id;sensor_type;location;lat;lon;timestamp;pressure;altitude;pressure_sealevel;temperature;humidity
14134;BME280;7147;59.364;18.018;2022-08-19T00:01:55;100991.13;;;19.75;100.00
14134;BME280;7147;59.364;18.018;2022-08-19T00:04:24;100986.97;;;19.77;100.00
14134;BME280;7147;59.364;18.018;2022-08-19T00:06:51;100976.66;;;19.78;100.00
14134;BME280;7147;59.364;18.018;2022-08-19T00:09:19;100972.84;;;19.84;100.00
14134;BME280;7147;59.364;18.018;2022-08-19T00:11:48;100985.16;;;19.88;100.00
14134;BME280;7147;59.364;18.018;2022-08-19T00:14:16;100986.66;;;19.95;100.00
14134;BME280;7147;59.364;18.018;2022-08-19T00:16:44;100977.44;;;19.95;100.00
14134;BME280;7147;59.364;18.018;2022-08-19T00:19:12;100980.25;;;19.95;100.00
14134;BME280;7147;59.364;18.018;2022-08-19T00:21:39;100986.06;;;19.93;100.00
14134;BME280;7147;59.364;18.018;2022-08-19T00:24:07;100991.06;;;19.91;100.00
14134;BME280;7147;59.364;18.018;2022-08-19T00:26:34;100983.53;;;19.92;100.00
14134;BME280;7147;59.364;18.018;2022-08-19T00:29:03;100991.41;;;19.95;100.00
14134;BME280;7147;59.364;18.018;2022-08-19T00:31:30;100987.72;;;19.89;100.00
14134;BME280;7147;59.364;18.018;2022-08-19T00:33:57;100982.94;;;19.90;100.00
14134;BME280;7147;59.364;18.018;2022-08-19T00:36:24;100978.19;;;19.90;100.00
14134;BME280;7147;59.364;18.018;2022-08-19T00:38:51;100981.09;;;19.95;100.00
14134;BME280;7147;59.364;18.018;2022-08-19T00:41:20;100979.72;;;19.98;100.00
14134;BME280;7147;59.364;18.018;2022-08-19T00:43:58;100968.03;;;20.01;100.00
14134;BME280;7147;59.364;18.018;2022-08-19T00:46:26;100973.59;;;20.01;100.00
14134;BME280;7147;59.364;18.018;2022-08-19T00:48:54;100971.16;;;20.04;100.00
14134;BME280;7147;59.364;18.018;2022-08-19T00:51:22;100969.81;;;20.12;100.00
14134;BME280;7147;59.364;18.018;2022-08-19T00:53:50;100962.63;;;20.16;100.00
14134;BME280;7147;59.364;18.018;2022-08-19T00:56:17;100967.97;;;20.23;100.00
14134;BME280;7147;59.364;18.018;2022-08-19T00:58:44;100961.09;;;20.25;100.00
14134;BME280;7147;59.364;18.018;2022-08-19T01:01:10;100964.69;;;20.26;100.00
14134;BME280;7147;59.364;18.018;2022-08-19T01:03:39;100964.69;;;20.26;100.00
14134;BME280;7147;59.364;18.018;2022-08-19T01:06:06;100967.25;;;20.27;100.00
14134;BME280;7147;59.364;18.018;2022-08-19T01:08:33;100962.22;;;20.29;100.00
14134;BME280;7147;59.364;18.018;2022-08-19T01:11:00;100961.97;;;20.31;100.00
14134;BME280;7147;59.364;18.018;2022-08-19T01:13:30;100973.16;;;20.31;100.00
14134;BME280;7147;59.364;18.018;2022-08-19T01:16:01;100971.25;;;20.36;100.00
14134;BME280;7147;59.364;18.018;2022-08-19T01:18:31;100963.44;;;20.38;100.00
14134;BME280;7147;59.364;18.018;2022-08-19T01:21:02;100963.44;;;20.38;100.00
14134;BME280;7147;59.364;18.018;2022-08-19T01:23:33;100957.34;;;20.41;100.00
14134;BME280;7147;59.364;18.018;2022-08-19T01:26:11;100957.13;;;20.48;100.00
14134;BME280;7147;59.364;18.018;2022-08-19T01:28:39;100955.75;;;20.50;100.00
14134;BME280;7147;59.364;18.018;2022-08-19T01:31:10;100949.09;;;20.56;100.00
14134;BME280;7147;59.364;18.018;2022-08-19T01:33:38;100953.63;;;20.63;100.00
14134;BME280;7147;59.364;18.018;2022-08-19T01:36:11;100949.78;;;20.69;100.00
14134;BME280;7147;59.364;18.018;2022-08-19T01:38:43;100947.00;;;20.69;100.00
14134;BME280;7147;59.364;18.018;2022-08-19T01:41:10;100947.88;;;20.74;100.00
14134;BME280;7147;59.364;18.018;2022-08-19T01:43:38;100950.13;;;20.77;100.00
14134;BME280;7147;59.364;18.018;2022-08-19T01:46:04;100948.13;;;20.73;100.00
14134;BME280;7147;59.364;18.018;2022-08-19T01:48:35;100948.94;;;20.68;100.00
14134;BME280;7147;59.364;18.018;2022-08-19T01:51:02;100955.94;;;20.71;100.00
14134;BME280;7147;59.364;18.018;2022-08-19T01:53:29;100954.53;;;20.68;100.00
14134;BME280;7147;59.364;18.018;2022-08-19T01:55:58;100958.78;;;20.76;100.00
14134;BME280;7147;59.364;18.018;2022-08-19T01:58:27;100961.88;;;20.74;100.00
14134;BME280;7147;59.364;18.018;2022-08-19T02:00:56;100952.38;;;20.75;100.00
14134;BME280;7147;59.364;18.018;2022-08-19T02:03:23;100953.19;;;20.76;100.00
14134;BME280;7147;59.364;18.018;2022-08-19T02:05:54;100949.28;;;20.77;100.00
14134;BME280;7147;59.364;18.018;2022-08-19T02:08:20;100956.06;;;20.81;100.00
14134;BME280;7147;59.364;18.018;2022-08-19T02:10:47;100945.72;;;20.81;100.00
14134;BME280;7147;59.364;18.018;2022-08-19T02:13:17;100949.59;;;20.80;100.00
14134;BME280;7147;59.364;18.018;2022-08-19T02:15:44;100941.19;;;20.75;100.00
14134;BME280;7147;59.364;18.018;2022-08-19T02:18:11;100942.53;;;20.73;100.00
14134;BME280;7147;59.364;18.018;2022-08-19T02:20:38;100946.19;;;20.73;100.00
14134;BME280;7147;59.364;18.018;2022-08-19T02:23:06;100946.78;;;20.75;100.00
14134;BME280;7147;59.364;18.018;2022-08-19T02:25:33;100947.31;;;20.72;100.00
14134;BME280;7147;59.364;18.018;2022-08-19T02:28:00;100950.03;;;20.67;100.00
14134;BME280;7147;59.364;18.018;2022-08-19T02:30:28;100943.63;;;20.67;100.00
14134;BME280;7147;59.364;18.018;2022-08-19T02:32:55;100946.16;;;20.68;100.00
14134;BME280;7147;59.364;18.018;2022-08-19T02:35:22;100949.78;;;20.69;100.00
14134;BME280;7147;59.364;18.018;2022-08-19T02:37:48;100944.75;;;20.71;100.00
14134;BME280;7147;59.364;18.018;2022-08-19T02:40:32;100950.03;;;20.67;100.00
14134;BME280;7147;59.364;18.018;2022-08-19T02:43:01;100955.34;;;20.64;100.00
14134;BME280;7147;59.364;18.018;2022-08-19T02:45:33;100944.97;;;20.64;100.00
14134;BME280;7147;59.364;18.018;2022-08-19T02:48:00;100942.47;;;20.63;100.00
14134;BME280;7147;59.364;18.018;2022-08-19T02:50:26;100947.53;;;20.66;100.00
14134;BME280;7147;59.364;18.018;2022-08-19T02:52:53;100948.66;;;20.70;100.00
14134;BME280;7147;59.364;18.018;2022-08-19T02:55:20;100951.44;;;20.70;100.00
14134;BME280;7147;59.364;18.018;2022-08-19T02:57:47;100944.16;;;20.64;100.00
14134;BME280;7147;59.364;18.018;2022-08-19T03:00:14;100939.38;;;20.64;100.00
14134;BME280;7147;59.364;18.018;2022-08-19T03:02:42;100944.16;;;20.64;100.00
14134;BME280;7147;59.364;18.018;2022-08-19T03:05:10;100946.34;;;20.62;100.00
14134;BME280;7147;59.364;18.018;2022-08-19T03:07:37;100945.81;;;20.65;100.00
14134;BME280;7147;59.364;18.018;2022-08-19T03:10:05;100950.56;;;20.64;100.00
14134;BME280;7147;59.364;18.018;2022-08-19T03:12:35;100944.69;;;20.61;100.00
14134;BME280;7147;59.364;18.018;2022-08-19T03:15:03;100944.09;;;20.58;100.00
14134;BME280;7147;59.364;18.018;2022-08-19T03:17:29;100948.56;;;20.59;100.00
14134;BME280;7147;59.364;18.018;2022-08-19T03:19:57;100945.25;;;20.63;100.00
14134;BME280;7147;59.364;18.018;2022-08-19T03:22:24;100948.91;;;20.63;100.00
14134;BME280;7147;59.364;18.018;2022-08-19T03:24:51;100944.75;;;20.71;100.00
14134;BME280;7147;59.364;18.018;2022-08-19T03:27:18;100956.00;;;20.76;100.00
14134;BME280;7147;59.364;18.018;2022-08-19T03:29:45;100946.78;;;20.75;100.00
14134;BME280;7147;59.364;18.018;2022-08-19T03:32:12;100957.47;;;20.83;100.00
14134;BME280;7147;59.364;18.018;2022-08-19T03:34:39;100962.53;;;20.86;100.00
14134;BME280;7147;59.364;18.018;2022-08-19T03:37:09;100966.25;;;20.97;100.00
14134;BME280;7147;59.364;18.018;2022-08-19T03:39:38;100957.31;;;21.00;100.00
14134;BME280;7147;59.364;18.018;2022-08-19T03:42:06;100959.59;;;21.03;100.00
14134;BME280;7147;59.364;18.018;2022-08-19T03:44:33;100959.41;;;21.09;100.00
14134;BME280;7147;59.364;18.018;2022-08-19T03:47:01;100954.13;;;21.13;100.00
14134;BME280;7147;59.364;18.018;2022-08-19T03:49:30;100960.25;;;21.10;100.00
14134;BME280;7147;59.364;18.018;2022-08-19T03:51:58;100955.91;;;20.97;100.00
14134;BME280;7147;59.364;18.018;2022-08-19T03:54:27;100954.53;;;21.00;100.00
14134;BME280;7147;59.364;18.018;2022-08-19T03:56:55;100954.53;;;21.00;100.00
14134;BME280;7147;59.364;18.018;2022-08-19T03:59:25;100972.00;;;21.12;100.00
14134;BME280;7147;59.364;18.018;2022-08-19T04:01:52;100955.16;;;21.07;100.00
14134;BME280;7147;59.364;18.018;2022-08-19T04:04:19;100963.94;;;21.16;100.00
14134;BME280;7147;59.364;18.018;2022-08-19T04:06:47;100967.03;;;21.19;100.00
14134;BME280;7147;59.364;18.018;2022-08-19T04:09:15;100964.66;;;21.06;100.00
14134;BME280;7147;59.364;18.018;2022-08-19T04:11:44;100970.72;;;20.93;100.00
14134;BME280;7147;59.364;18.018;2022-08-19T04:14:14;100973.53;;;20.98;100.00
14134;BME280;7147;59.364;18.018;2022-08-19T04:16:42;100965.00;;;21.09;100.00
14134;BME280;7147;59.364;18.018;2022-08-19T04:19:09;100956.31;;;21.11;100.00
14134;BME280;7147;59.364;18.018;2022-08-19T04:21:35;100968.16;;;21.23;100.00
14134;BME280;7147;59.364;18.018;2022-08-19T04:24:03;100980.22;;;21.24;100.00
14134;BME280;7147;59.364;18.018;2022-08-19T04:26:33;100988.94;;;21.27;100.00
14134;BME280;7147;59.364;18.018;2022-08-19T04:29:03;100964.25;;;21.19;100.00
14134;BME280;7147;59.364;18.018;2022-08-19T04:31:32;100980.88;;;21.36;100.00
14134;BME280;7147;59.364;18.018;2022-08-19T04:34:02;100982.28;;;21.38;100.00
14134;BME280;7147;59.364;18.018;2022-08-19T04:36:31;100981.38;;;21.28;100.00
14134;BME280;7147;59.364;18.018;2022-08-19T04:39:00;100986.44;;;21.31;100.00
14134;BME280;7147;59.364;18.018;2022-08-19T04:41:27;100974.75;;;21.44;100.00
14134;BME280;7147;59.364;18.018;2022-08-19T04:44:12;100991.31;;;21.45;100.00
14134;BME280;7147;59.364;18.018;2022-08-19T04:46:39;100985.94;;;21.39;100.00
14134;BME280;7147;59.364;18.018;2022-08-19T04:49:06;100987.94;;;21.43;100.00
14134;BME280;7147;59.364;18.018;2022-08-19T04:51:34;100994.16;;;21.55;100.00
14134;BME280;7147;59.364;18.018;2022-08-19T04:54:03;100986.38;;;21.62;100.00
14134;BME280;7147;59.364;18.018;2022-08-19T04:56:30;100983.31;;;21.64;100.00
14134;BME280;7147;59.364;18.018;2022-08-19T04:58:57;100992.59;;;21.69;100.00
14134;BME280;7147;59.364;18.018;2022-08-19T05:01:32;100981.91;;;21.66;100.00
14134;BME280;7147;59.364;18.018;2022-08-19T05:03:59;100980.22;;;21.65;100.00
14134;BME280;7147;59.364;18.018;2022-08-19T05:06:27;100984.44;;;21.68;100.00
14134;BME280;7147;59.364;18.018;2022-08-19T05:08:58;100960.94;;;21.69;100.00
14134;BME280;7147;59.364;18.018;2022-08-19T05:11:27;100982.00;;;21.82;100.00
14134;BME280;7147;59.364;18.018;2022-08-19T05:13:54;100976.13;;;21.83;100.00
14134;BME280;7147;59.364;18.018;2022-08-19T05:16:22;100975.81;;;21.80;100.00
14134;BME280;7147;59.364;18.018;2022-08-19T05:18:51;100961.56;;;21.81;100.00
14134;BME280;7147;59.364;18.018;2022-08-19T05:21:35;100969.66;;;21.83;100.00
14134;BME280;7147;59.364;18.018;2022-08-19T05:24:21;100952.53;;;21.74;100.00
14134;BME280;7147;59.364;18.018;2022-08-19T05:26:50;100957.41;;;21.89;100.00
14134;BME280;7147;59.364;18.018;2022-08-19T05:29:19;100967.53;;;22.00;100.00
14134;BME280;7147;59.364;18.018;2022-08-19T05:31:48;100961.44;;;22.13;100.00
14134;BME280;7147;59.364;18.018;2022-08-19T05:34:17;100955.88;;;22.33;100.00
14134;BME280;7147;59.364;18.018;2022-08-19T05:36:48;100951.44;;;22.42;100.00
14134;BME280;7147;59.364;18.018;2022-08-19T05:39:19;100939.63;;;22.35;100.00
14134;BME280;7147;59.364;18.018;2022-08-19T05:41:48;100957.88;;;22.53;100.00
14134;BME280;7147;59.364;18.018;2022-08-19T05:44:17;100960.50;;;22.64;100.00
14134;BME280;7147;59.364;18.018;2022-08-19T05:46:45;100957.97;;;22.78;100.00
14134;BME280;7147;59.364;18.018;2022-08-19T05:49:14;100961.34;;;22.95;100.00
14134;BME280;7147;59.364;18.018;2022-08-19T05:51:43;100959.38;;;22.86;100.00
14134;BME280;7147;59.364;18.018;2022-08-19T05:54:10;100951.53;;;23.03;100.00
14134;BME280;7147;59.364;18.018;2022-08-19T05:56:39;100950.94;;;23.16;100.00
14134;BME280;7147;59.364;18.018;2022-08-19T05:59:07;100954.31;;;23.38;100.00
14134;BME280;7147;59.364;18.018;2022-08-19T06:01:35;100959.56;;;23.75;100.00
14134;BME280;7147;59.364;18.018;2022-08-19T06:04:03;100955.59;;;23.86;100.00
14134;BME280;7147;59.364;18.018;2022-08-19T06:06:30;100957.34;;;23.67;100.00
14134;BME280;7147;59.364;18.018;2022-08-19T06:09:01;100954.84;;;23.60;100.00
14134;BME280;7147;59.364;18.018;2022-08-19T06:11:34;100935.41;;;23.74;100.00
14134;BME280;7147;59.364;18.018;2022-08-19T06:14:03;100946.78;;;24.08;100.00
14134;BME280;7147;59.364;18.018;2022-08-19T06:16:30;100947.66;;;24.08;100.00
14134;BME280;7147;59.364;18.018;2022-08-19T06:19:02;100936.34;;;24.18;100.00
14134;BME280;7147;59.364;18.018;2022-08-19T06:21:30;100932.69;;;24.23;100.00
14134;BME280;7147;59.364;18.018;2022-08-19T06:23:58;100938.41;;;24.03;100.00
14134;BME280;7147;59.364;18.018;2022-08-19T06:26:26;100945.75;;;23.88;100.00
14134;BME280;7147;59.364;18.018;2022-08-19T06:28:53;100935.69;;;23.72;100.00
14134;BME280;7147;59.364;18.018;2022-08-19T06:31:23;100936.28;;;23.64;100.00
14134;BME280;7147;59.364;18.018;2022-08-19T06:33:50;100936.91;;;23.46;100.00
14134;BME280;7147;59.364;18.018;2022-08-19T06:36:19;100944.47;;;23.46;100.00
14134;BME280;7147;59.364;18.018;2022-08-19T06:38:46;100950.94;;;23.46;100.00
14134;BME280;7147;59.364;18.018;2022-08-19T06:41:13;100956.25;;;23.48;100.00
14134;BME280;7147;59.364;18.018;2022-08-19T06:43:41;100961.88;;;23.58;100.00
14134;BME280;7147;59.364;18.018;2022-08-19T06:46:13;100959.34;;;23.61;100.00
14134;BME280;7147;59.364;18.018;2022-08-19T06:48:41;100964.41;;;23.64;100.00
14134;BME280;7147;59.364;18.018;2022-08-19T06:51:08;100966.06;;;23.65;100.00
14134;BME280;7147;59.364;18.018;2022-08-19T06:53:35;100962.13;;;23.76;100.00
14134;BME280;7147;59.364;18.018;2022-08-19T06:56:02;100962.94;;;23.72;100.00
14134;BME280;7147;59.364;18.018;2022-08-19T06:58:29;100943.00;;;23.78;100.00
14134;BME280;7147;59.364;18.018;2022-08-19T07:01:02;100957.00;;;23.94;100.00
14134;BME280;7147;59.364;18.018;2022-08-19T07:03:30;100960.03;;;24.02;100.00
14134;BME280;7147;59.364;18.018;2022-08-19T07:06:03;100963.13;;;24.06;100.00
14134;BME280;7147;59.364;18.018;2022-08-19T07:08:30;100962.56;;;24.14;100.00
14134;BME280;7147;59.364;18.018;2022-08-19T07:10:57;100959.41;;;24.25;100.00
14134;BME280;7147;59.364;18.018;2022-08-19T07:13:24;100961.38;;;24.25;100.00
14134;BME280;7147;59.364;18.018;2022-08-19T07:15:50;100962.47;;;24.29;100.00
14134;BME280;7147;59.364;18.018;2022-08-19T07:18:19;100968.06;;;24.34;100.00
14134;BME280;7147;59.364;18.018;2022-08-19T07:20:47;100965.13;;;24.54;100.00
14134;BME280;7147;59.364;18.018;2022-08-19T07:23:13;100962.31;;;24.59;100.00
14134;BME280;7147;59.364;18.018;2022-08-19T07:25:40;100963.34;;;24.68;100.00
14134;BME280;7147;59.364;18.018;2022-08-19T07:28:08;100981.00;;;24.84;100.00
14134;BME280;7147;59.364;18.018;2022-08-19T07:30:36;100973.84;;;25.02;100.00
14134;BME280;7147;59.364;18.018;2022-08-19T07:33:03;100975.94;;;25.20;100.00
14134;BME280;7147;59.364;18.018;2022-08-19T07:35:32;100985.78;;;25.22;100.00
14134;BME280;7147;59.364;18.018;2022-08-19T07:37:59;100980.13;;;25.22;100.00
14134;BME280;7147;59.364;18.018;2022-08-19T07:40:27;100975.28;;;25.28;100.00
14134;BME280;7147;59.364;18.018;2022-08-19T07:42:54;100973.63;;;25.27;100.00
14134;BME280;7147;59.364;18.018;2022-08-19T07:45:21;100959.69;;;25.40;100.00
14134;BME280;7147;59.364;18.018;2022-08-19T07:47:47;100966.50;;;25.63;100.00
14134;BME280;7147;59.364;18.018;2022-08-19T07:50:16;100962.22;;;25.71;100.00
14134;BME280;7147;59.364;18.018;2022-08-19T07:52:45;100971.88;;;25.88;100.00
14134;BME280;7147;59.364;18.018;2022-08-19T07:55:18;100964.03;;;25.85;100.00
14134;BME280;7147;59.364;18.018;2022-08-19T07:57:44;100963.06;;;25.95;100.00
14134;BME280;7147;59.364;18.018;2022-08-19T08:00:12;100964.81;;;26.15;100.00
14134;BME280;7147;59.364;18.018;2022-08-19T08:02:39;100963.53;;;26.26;100.00
14134;BME280;7147;59.364;18.018;2022-08-19T08:05:08;100967.44;;;26.30;100.00
14134;BME280;7147;59.364;18.018;2022-08-19T08:07:53;100974.13;;;26.34;100.00
14134;BME280;7147;59.364;18.018;2022-08-19T08:10:37;100957.75;;;26.36;100.00
14134;BME280;7147;59.364;18.018;2022-08-19T08:13:04;100962.19;;;26.42;100.00
14134;BME280;7147;59.364;18.018;2022-08-19T08:15:31;100956.59;;;26.37;100.00
14134;BME280;7147;59.364;18.018;2022-08-19T08:17:58;100954.63;;;26.75;100.00
14134;BME280;7147;59.364;18.018;2022-08-19T08:20:25;100961.00;;;26.85;100.00
14134;BME280;7147;59.364;18.018;2022-08-19T08:22:54;100961.28;;;26.65;100.00
14134;BME280;7147;59.364;18.018;2022-08-19T08:25:37;100964.78;;;26.57;100.00
14134;BME280;7147;59.364;18.018;2022-08-19T08:28:05;100945.03;;;26.57;100.00
14134;BME280;7147;59.364;18.018;2022-08-19T08:30:33;100954.91;;;26.54;100.00
14134;BME280;7147;59.364;18.018;2022-08-19T08:33:02;100949.22;;;26.59;100.00
14134;BME280;7147;59.364;18.018;2022-08-19T08:35:29;100950.81;;;26.66;100.00
14134;BME280;7147;59.364;18.018;2022-08-19T08:37:57;100953.66;;;26.66;100.00
14134;BME280;7147;59.364;18.018;2022-08-19T08:40:28;100961.56;;;26.63;100.00
14134;BME280;7147;59.364;18.018;2022-08-19T08:43:00;100963.72;;;26.72;100.00
14134;BME280;7147;59.364;18.018;2022-08-19T08:45:30;100960.50;;;26.78;100.00
14134;BME280;7147;59.364;18.018;2022-08-19T08:48:02;100962.50;;;26.78;100.00
14134;BME280;7147;59.364;18.018;2022-08-19T08:50:34;100964.88;;;26.89;100.00
14134;BME280;7147;59.364;18.018;2022-08-19T08:53:06;100956.63;;;26.93;100.00
14134;BME280;7147;59.364;18.018;2022-08-19T08:55:34;100963.31;;;27.15;100.00
14134;BME280;7147;59.364;18.018;2022-08-19T08:58:03;100966.22;;;27.10;100.00
14134;BME280;7147;59.364;18.018;2022-08-19T09:00:33;100966.16;;;27.15;100.00
14134;BME280;7147;59.364;18.018;2022-08-19T09:03:03;100962.69;;;27.19;100.00
14134;BME280;7147;59.364;18.018;2022-08-19T09:05:39;100957.19;;;27.41;100.00
14134;BME280;7147;59.364;18.018;2022-08-19T09:08:18;100952.47;;;27.68;100.00
14134;BME280;7147;59.364;18.018;2022-08-19T09:10:52;100956.47;;;27.81;100.00
14134;BME280;7147;59.364;18.018;2022-08-19T09:13:25;100941.25;;;27.77;100.00
14134;BME280;7147;59.364;18.018;2022-08-19T09:15:59;100944.19;;;27.99;100.00
14134;BME280;7147;59.364;18.018;2022-08-19T09:18:39;100958.25;;;28.18;100.00
14134;BME280;7147;59.364;18.018;2022-08-19T09:21:06;100946.22;;;28.12;100.00
14134;BME280;7147;59.364;18.018;2022-08-19T09:23:35;100937.91;;;28.30;100.00
14134;BME280;7147;59.364;18.018;2022-08-19T09:26:07;100944.28;;;28.49;100.00
14134;BME280;7147;59.364;18.018;2022-08-19T09:28:34;100947.50;;;28.56;100.00
14134;BME280;7147;59.364;18.018;2022-08-19T09:31:02;100950.19;;;28.25;100.00
14134;BME280;7147;59.364;18.018;2022-08-19T09:33:29;100946.97;;;28.04;100.00
14134;BME280;7147;59.364;18.018;2022-08-19T09:36:02;100954.28;;;28.05;100.00
14134;BME280;7147;59.364;18.018;2022-08-19T09:38:29;100942.66;;;28.07;100.00
14134;BME280;7147;59.364;18.018;2022-08-19T09:41:03;100953.22;;;28.01;100.00
14134;BME280;7147;59.364;18.018;2022-08-19T09:43:31;100954.59;;;28.04;100.00
14134;BME280;7147;59.364;18.018;2022-08-19T09:45:57;100948.53;;;28.10;100.00
14134;BME280;7147;59.364;18.018;2022-08-19T09:48:25;100944.81;;;28.23;100.00
14134;BME280;7147;59.364;18.018;2022-08-19T09:50:52;100944.28;;;28.35;100.00
14134;BME280;7147;59.364;18.018;2022-08-19T09:53:19;100953.50;;;28.41;100.00
14134;BME280;7147;59.364;18.018;2022-08-19T09:55:47;100947.66;;;28.23;100.00
14134;BME280;7147;59.364;18.018;2022-08-19T09:58:15;100945.56;;;28.29;100.00
14134;BME280;7147;59.364;18.018;2022-08-19T10:00:42;100942.06;;;28.46;100.00
14134;BME280;7147;59.364;18.018;2022-08-19T10:03:08;100944.03;;;28.59;100.00
14134;BME280;7147;59.364;18.018;2022-08-19T10:05:36;100937.00;;;28.56;100.00
14134;BME280;7147;59.364;18.018;2022-08-19T10:08:25;100934.34;;;28.73;100.00
14134;BME280;7147;59.364;18.018;2022-08-19T10:10:53;100937.41;;;28.99;100.00
14134;BME280;7147;59.364;18.018;2022-08-19T10:13:23;100936.81;;;28.89;100.00
14134;BME280;7147;59.364;18.018;2022-08-19T10:15:52;100941.44;;;28.85;100.00
14134;BME280;7147;59.364;18.018;2022-08-19T10:18:20;100930.56;;;29.00;100.00
14134;BME280;7147;59.364;18.018;2022-08-19T10:20:49;100935.34;;;29.36;100.00
14134;BME280;7147;59.364;18.018;2022-08-19T10:23:16;100935.63;;;29.25;100.00
14134;BME280;7147;59.364;18.018;2022-08-19T10:25:43;100928.28;;;29.24;100.00
14134;BME280;7147;59.364;18.018;2022-08-19T10:28:09;100930.84;;;29.35;100.00
14134;BME280;7147;59.364;18.018;2022-08-19T10:30:39;100923.88;;;29.41;100.00
14134;BME280;7147;59.364;18.018;2022-08-19T10:33:06;100930.69;;;29.40;100.00
14134;BME280;7147;59.364;18.018;2022-08-19T10:35:32;100925.94;;;29.26;100.00
14134;BME280;7147;59.364;18.018;2022-08-19T10:37:59;100931.66;;;29.13;100.00
14134;BME280;7147;59.364;18.018;2022-08-19T10:40:27;100930.81;;;29.12;100.00
14134;BME280;7147;59.364;18.018;2022-08-19T10:42:54;100924.00;;;29.13;100.00
14134;BME280;7147;59.364;18.018;2022-08-19T10:45:22;100916.59;;;29.26;100.00
14134;BME280;7147;59.364;18.018;2022-08-19T10:47:53;100916.94;;;29.24;100.00
14134;BME280;7147;59.364;18.018;2022-08-19T10:50:20;100912.22;;;29.20;100.00
14134;BME280;7147;59.364;18.018;2022-08-19T10:53:05;100923.69;;;29.37;100.00
14134;BME280;7147;59.364;18.018;2022-08-19T10:55:34;100916.28;;;29.58;100.00
14134;BME280;7147;59.364;18.018;2022-08-19T10:58:19;100920.16;;;29.71;100.00
14134;BME280;7147;59.364;18.018;2022-08-19T11:00:51;100914.94;;;29.86;99.51
14134;BME280;7147;59.364;18.018;2022-08-19T11:03:20;100920.31;;;29.97;98.45
14134;BME280;7147;59.364;18.018;2022-08-19T11:05:56;100923.16;;;29.97;99.04
14134;BME280;7147;59.364;18.018;2022-08-19T11:08:23;100915.88;;;29.82;99.76
14134;BME280;7147;59.364;18.018;2022-08-19T11:10:53;100913.28;;;30.03;94.63
14134;BME280;7147;59.364;18.018;2022-08-19T11:13:21;100912.75;;;30.40;90.51
14134;BME280;7147;59.364;18.018;2022-08-19T11:15:56;100926.13;;;30.48;89.97
14134;BME280;7147;59.364;18.018;2022-08-19T11:18:24;100918.03;;;30.33;94.25
14134;BME280;7147;59.364;18.018;2022-08-19T11:20:51;100918.53;;;30.26;93.02
14134;BME280;7147;59.364;18.018;2022-08-19T11:23:18;100906.50;;;30.29;88.21
14134;BME280;7147;59.364;18.018;2022-08-19T11:25:44;100902.41;;;30.53;84.12
14134;BME280;7147;59.364;18.018;2022-08-19T11:28:11;100896.88;;;30.99;78.68
14134;BME280;7147;59.364;18.018;2022-08-19T11:30:39;100906.09;;;30.96;82.82
14134;BME280;7147;59.364;18.018;2022-08-19T11:33:05;100904.41;;;30.78;79.30
14134;BME280;7147;59.364;18.018;2022-08-19T11:35:33;100910.63;;;30.97;79.59
14134;BME280;7147;59.364;18.018;2022-08-19T11:38:00;100905.03;;;31.26;81.67
14134;BME280;7147;59.364;18.018;2022-08-19T11:40:28;100907.50;;;31.36;84.26
14134;BME280;7147;59.364;18.018;2022-08-19T11:42:54;100911.06;;;31.25;85.60
14134;BME280;7147;59.364;18.018;2022-08-19T11:45:21;100910.59;;;31.14;86.28
14134;BME280;7147;59.364;18.018;2022-08-19T11:47:48;100893.16;;;31.16;83.31
14134;BME280;7147;59.364;18.018;2022-08-19T11:50:15;100904.16;;;31.43;77.74
14134;BME280;7147;59.364;18.018;2022-08-19T11:52:44;100896.00;;;31.16;80.91
14134;BME280;7147;59.364;18.018;2022-08-19T11:55:10;100909.94;;;31.00;84.24
14134;BME280;7147;59.364;18.018;2022-08-19T11:57:37;100903.88;;;31.10;84.91
14134;BME280;7147;59.364;18.018;2022-08-19T12:00:06;100908.75;;;31.01;84.65
14134;BME280;7147;59.364;18.018;2022-08-19T12:02:34;100899.72;;;30.99;82.87
14134;BME280;7147;59.364;18.018;2022-08-19T12:05:01;100901.03;;;31.10;82.39
14134;BME280;7147;59.364;18.018;2022-08-19T12:07:28;100903.88;;;31.19;78.46
14134;BME280;7147;59.364;18.018;2022-08-19T12:09:58;100903.69;;;31.32;76.69
14134;BME280;7147;59.364;18.018;2022-08-19T12:12:25;100899.13;;;31.48;79.48
14134;BME280;7147;59.364;18.018;2022-08-19T12:14:51;100902.47;;;31.59;80.36
14134;BME280;7147;59.364;18.018;2022-08-19T12:17:22;100906.63;;;31.62;81.36
14134;BME280;7147;59.364;18.018;2022-08-19T12:19:48;100901.81;;;31.36;81.82
14134;BME280;7147;59.364;18.018;2022-08-19T12:22:15;100902.88;;;31.23;83.40
14134;BME280;7147;59.364;18.018;2022-08-19T12:24:42;100904.84;;;31.31;83.01
14134;BME280;7147;59.364;18.018;2022-08-19T12:27:10;100897.31;;;31.35;81.52
14134;BME280;7147;59.364;18.018;2022-08-19T12:29:36;100907.72;;;31.23;81.92
14134;BME280;7147;59.364;18.018;2022-08-19T12:32:03;100902.88;;;31.23;82.80
14134;BME280;7147;59.364;18.018;2022-08-19T12:34:31;100900.00;;;31.32;75.27
14134;BME280;7147;59.364;18.018;2022-08-19T12:37:01;100909.19;;;31.37;69.89
14134;BME280;7147;59.364;18.018;2022-08-19T12:39:28;100905.81;;;31.44;67.98
14134;BME280;7147;59.364;18.018;2022-08-19T12:41:57;100907.16;;;31.46;67.08
14134;BME280;7147;59.364;18.018;2022-08-19T12:44:26;100901.97;;;31.40;65.86
14134;BME280;7147;59.364;18.018;2022-08-19T12:46:52;100900.63;;;31.46;64.77
14134;BME280;7147;59.364;18.018;2022-08-19T12:49:19;100910.16;;;31.59;63.81